Granite, Colorado
Current Conditions -  °F | °C
As of 10:53 PM on Monday 20 Oct 2014 (Local Time) from KLXV Reporting Station
Clear Clear  
Wind Chill: 38°   Ceiling: Unl
Heat Index: 38°   Visibility: 10mi
Dew Point: 28°   Wind: 3mph
Humidity: 68%   Direction: 50°NE
Pressure: 30.33"   Gusts: NA
Location:  39.05°N, 106.27°W
Report Text: KLXV 210453Z AUTO 05003KT 10SM CLR 03/M02 A3033 RMK AO2 SLP158 T00331022
Loading
Personal Weather Stations






























Interactive Weather Map
Tropical Storm Tracking
New forecast layout! Learn more

10-Day Weather Forecast

Advertisements
Track Severe Weather on mobile